Time;durP1;ratioP1;P1;durP2;ratioP2;P2;SDS_P1;SDS_P2;PMS_P1;PMS_P2;Temp;Humidity;BMP_temperature;BMP_pressure;BME280_temperature;BME280_humidity;BME280_pressure;Samples;Min_cycle;Max_cycle;Signal;HPM_P1;HPM_P2
2022/12/27 00:01:52;;;;;;;3.38;1.70;;;;;;;;;;5094368;28;20032;-77
2022/12/27 00:04:17;;;;;;;3.15;1.70;;;;;;;;;;5077618;28;20039;-77
2022/12/27 00:06:42;;;;;;;2.20;1.65;;;;;;;;;;5095790;28;20034;-77
2022/12/27 00:09:08;;;;;;;3.30;1.65;;;;;;;;;;5094654;28;20039;-77
2022/12/27 00:11:34;;;;;;;4.45;1.90;;;;;;;;;;5077526;28;20107;-77
2022/12/27 00:14:01;;;;;;;3.03;1.40;;;;;;;;;;5094955;28;20032;-77
2022/12/27 00:16:26;;;;;;;3.33;1.75;;;;;;;;;;5094677;28;20023;-77
2022/12/27 00:18:52;;;;;;;3.53;1.85;;;;;;;;;;5094870;28;20101;-77
2022/12/27 00:21:18;;;;;;;4.25;1.92;;;;;;;;;;5093708;28;20028;-77
2022/12/27 00:23:47;;;;;;;3.47;1.52;;;;;;;;;;5094548;28;20103;-77
2022/12/27 00:26:26;;;;;;;3.53;1.83;;;;;;;;;;5094515;28;20117;-77
2022/12/27 00:28:52;;;;;;;4.97;2.00;;;;;;;;;;5094462;28;20077;-78
2022/12/27 00:31:19;;;;;;;3.83;1.80;;;;;;;;;;5094348;28;20036;-78
2022/12/27 00:33:46;;;;;;;4.25;1.67;;;;;;;;;;5077276;28;20092;-78
2022/12/27 00:36:14;;;;;;;4.70;1.90;;;;;;;;;;5094232;28;20023;-77
2022/12/27 00:38:40;;;;;;;4.10;1.70;;;;;;;;;;5094257;28;20134;-77
2022/12/27 00:41:05;;;;;;;3.67;1.80;;;;;;;;;;5093898;28;20115;-77
2022/12/27 00:43:31;;;;;;;4.53;1.70;;;;;;;;;;5095047;28;20470;-78
2022/12/27 00:45:56;;;;;;;3.17;1.83;;;;;;;;;;5093780;28;20039;-78
2022/12/27 00:48:22;;;;;;;3.95;1.92;;;;;;;;;;5095031;28;20052;-77
2022/12/27 00:50:47;;;;;;;3.25;1.77;;;;;;;;;;5076884;28;20036;-77
2022/12/27 00:53:13;;;;;;;1.73;1.40;;;;;;;;;;5095101;28;20032;-78
2022/12/27 00:55:42;;;;;;;2.78;1.50;;;;;;;;;;5076742;28;20085;-77
2022/12/27 00:58:07;;;;;;;2.78;1.40;;;;;;;;;;5093911;28;20103;-77
2022/12/27 01:00:33;;;;;;;2.88;1.70;;;;;;;;;;5093299;28;20119;-78
2022/12/27 01:02:58;;;;;;;2.75;1.60;;;;;;;;;;5095859;28;20024;-77
2022/12/27 01:05:24;;;;;;;4.63;1.80;;;;;;;;;;5093402;28;20047;-77
2022/12/27 01:07:49;;;;;;;2.35;1.30;;;;;;;;;;5076457;28;20058;-77
2022/12/27 01:10:15;;;;;;;2.85;1.55;;;;;;;;;;5094825;28;20463;-77
2022/12/27 01:12:40;;;;;;;3.13;1.60;;;;;;;;;;5094816;28;20039;-78
2022/12/27 01:15:07;;;;;;;2.72;1.50;;;;;;;;;;5094523;28;20032;-77
2022/12/27 01:17:32;;;;;;;3.13;1.67;;;;;;;;;;5093764;28;20032;-77
2022/12/27 01:19:58;;;;;;;5.53;1.70;;;;;;;;;;5094490;28;20389;-78
2022/12/27 01:22:23;;;;;;;4.22;1.58;;;;;;;;;;5094251;28;20031;-77
2022/12/27 01:24:49;;;;;;;2.47;1.48;;;;;;;;;;5094269;28;20039;-78
2022/12/27 01:27:14;;;;;;;3.22;1.70;;;;;;;;;;5094281;28;20036;-77
2022/12/27 01:29:39;;;;;;;5.45;1.83;;;;;;;;;;5094322;28;20172;-78
2022/12/27 01:32:05;;;;;;;4.55;1.70;;;;;;;;;;5095039;28;20032;-77
2022/12/27 01:34:31;;;;;;;2.60;1.55;;;;;;;;;;5092132;28;20498;-77
2022/12/27 01:36:56;;;;;;;2.78;1.50;;;;;;;;;;5092927;28;20032;-77
2022/12/27 01:39:22;;;;;;;3.78;1.63;;;;;;;;;;5094091;28;20043;-77
2022/12/27 01:44:39;;;;;;;2.42;1.50;;;;;;;;;;5094129;28;20124;-77
2022/12/27 01:47:16;;;;;;;;;;;;;;;;;;5094417;28;20089;-77
2022/12/27 01:49:52;;;;;;;2.95;1.52;;;;;;;;;;5093767;28;19977;-77
2022/12/27 01:52:17;;;;;;;4.38;1.58;;;;;;;;;;5093927;28;20026;-78
2022/12/27 01:54:43;;;;;;;4.25;1.50;;;;;;;;;;5093742;28;20106;-78
2022/12/27 01:57:09;;;;;;;3.58;1.50;;;;;;;;;;5075931;28;20467;-78
2022/12/27 01:59:34;;;;;;;3.35;1.60;;;;;;;;;;5093772;28;20036;-78
2022/12/27 02:02:00;;;;;;;3.13;1.50;;;;;;;;;;5093778;28;20032;-78
2022/12/27 02:04:27;;;;;;;4.47;1.52;;;;;;;;;;5092712;28;20100;-78
2022/12/27 02:06:53;;;;;;;3.17;1.67;;;;;;;;;;5092800;28;20024;-78
2022/12/27 02:09:41;;;;;;;3.88;1.90;;;;;;;;;;5092413;28;20097;-77
2022/12/27 02:12:08;;;;;;;3.08;1.50;;;;;;;;;;5092786;28;20475;-78
2022/12/27 02:14:38;;;;;;;3.15;1.52;;;;;;;;;;5075353;28;20034;-77
2022/12/27 02:17:11;;;;;;;3.85;1.80;;;;;;;;;;5092460;28;20027;-77
2022/12/27 02:19:40;;;;;;;2.25;1.55;;;;;;;;;;5093419;28;20475;-77
2022/12/27 02:22:27;;;;;;;4.10;1.42;;;;;;;;;;5093257;28;20035;-77
2022/12/27 02:25:19;;;;;;;5.25;1.60;;;;;;;;;;5093475;28;20059;-77
2022/12/27 02:27:51;;;;;;;2.78;1.30;;;;;;;;;;5092198;28;20475;-77
2022/12/27 02:30:17;;;;;;;2.80;1.40;;;;;;;;;;5093480;28;20059;-77
2022/12/27 02:32:57;;;;;;;3.13;1.63;;;;;;;;;;5093898;28;20059;-77
2022/12/27 02:35:29;;;;;;;2.17;1.40;;;;;;;;;;5092496;28;20028;-77
2022/12/27 02:38:03;;;;;;;2.65;1.40;;;;;;;;;;5092401;28;20423;-78
2022/12/27 02:54:42;;;;;;;3.40;1.70;;;;;;;;;;5099907;28;20077;-78
2022/12/27 02:57:44;;;;;;;3.17;1.58;;;;;;;;;;5098656;28;20463;-78
2022/12/27 03:03:23;;;;;;;2.42;1.40;;;;;;;;;;5099243;28;20137;-78
2022/12/27 03:06:41;;;;;;;2.88;1.30;;;;;;;;;;5099797;28;20031;-78
2022/12/27 03:15:55;;;;;;;3.60;1.40;;;;;;;;;;5099571;28;20094;-77
2022/12/27 03:18:36;;;;;;;3.63;1.40;;;;;;;;;;5099595;28;20028;-77
2022/12/27 03:26:34;;;;;;;4.13;1.42;;;;;;;;;;5098775;28;20050;-77
2022/12/27 03:34:38;;;;;;;3.90;1.30;;;;;;;;;;5098791;28;20031;-78
2022/12/27 03:40:23;;;;;;;4.47;1.60;;;;;;;;;;5098541;28;20501;-78
2022/12/27 03:43:12;;;;;;;9.32;1.33;;;;;;;;;;5099283;28;20077;-78
2022/12/27 03:48:53;;;;;;;2.42;1.30;;;;;;;;;;5099219;28;20055;-77
2022/12/27 03:51:20;;;;;;;1.83;1.10;;;;;;;;;;5098189;28;20028;-78
2022/12/27 03:53:47;;;;;;;2.20;1.20;;;;;;;;;;5098112;28;20020;-77
2022/12/27 03:56:13;;;;;;;3.42;1.40;;;;;;;;;;5078915;28;20392;-77
2022/12/27 03:58:38;;;;;;;2.00;1.20;;;;;;;;;;5095099;28;20032;-77
2022/12/27 04:01:04;;;;;;;2.90;1.33;;;;;;;;;;5077854;28;20031;-78
2022/12/27 04:03:29;;;;;;;6.10;1.60;;;;;;;;;;5094935;28;20032;-77
2022/12/27 04:05:54;;;;;;;1.90;1.27;;;;;;;;;;5094784;28;20028;-77
2022/12/27 04:35:38;;;;;;;1.85;1.10;;;;;;;;;;5095841;28;20043;-80
2022/12/27 04:38:04;;;;;;;4.20;1.13;;;;;;;;;;5094422;28;20028;-78
2022/12/27 04:57:18;;;;;;;1.50;1.10;;;;;;;;;;5050020;28;20494;-78
2022/12/27 05:02:27;;;;;;;2.67;1.67;;;;;;;;;;5094465;28;20124;-78
2022/12/27 05:04:53;;;;;;;3.30;1.30;;;;;;;;;;5094191;28;20040;-79
2022/12/27 05:15:31;;;;;;;2.65;1.30;;;;;;;;;;5095250;28;20038;-78
2022/12/27 05:17:57;;;;;;;1.60;0.95;;;;;;;;;;5094905;28;20040;-77
2022/12/27 05:20:22;;;;;;;2.15;1.13;;;;;;;;;;5095300;28;20370;-77
2022/12/27 05:25:36;;;;;;;;;;;;;;;;;;5095436;28;20039;-76
2022/12/27 05:28:02;;;;;;;2.03;0.98;;;;;;;;;;5093513;28;19961;-77
2022/12/27 05:30:28;;;;;;;2.72;1.15;;;;;;;;;;5093642;28;20347;-77
2022/12/27 05:32:56;;;;;;;1.55;0.95;;;;;;;;;;5093448;28;20024;-77
2022/12/27 05:35:22;;;;;;;2.90;1.45;;;;;;;;;;5093648;28;20440;-77
2022/12/27 05:37:47;;;;;;;3.67;1.30;;;;;;;;;;5076535;28;20042;-76
2022/12/27 05:40:13;;;;;;;2.92;1.20;;;;;;;;;;5094647;28;20055;-78
2022/12/27 05:42:38;;;;;;;4.40;1.70;;;;;;;;;;5093368;28;20499;-78
2022/12/27 05:45:04;;;;;;;4.88;1.92;;;;;;;;;;5076216;28;20413;-78
2022/12/27 05:47:29;;;;;;;13.20;2.60;;;;;;;;;;5094230;28;20093;-76
2022/12/27 05:49:55;;;;;;;5.55;2.35;;;;;;;;;;5094298;28;20048;-76
2022/12/27 05:52:20;;;;;;;14.43;2.53;;;;;;;;;;5092280;28;20032;-76
2022/12/27 05:54:46;;;;;;;9.98;2.85;;;;;;;;;;5093350;28;20386;-76
2022/12/27 05:57:11;;;;;;;13.63;2.67;;;;;;;;;;5092038;28;20035;-76
2022/12/27 05:59:36;;;;;;;9.60;2.60;;;;;;;;;;5092150;28;20032;-75
2022/12/27 06:02:02;;;;;;;10.38;3.00;;;;;;;;;;5093041;28;20455;-76
2022/12/27 06:04:27;;;;;;;14.32;2.50;;;;;;;;;;5093139;28;20081;-76
2022/12/27 06:06:53;;;;;;;13.95;3.28;;;;;;;;;;5093108;28;20024;-76
2022/12/27 06:09:18;;;;;;;11.55;2.80;;;;;;;;;;5091932;28;20103;-78
2022/12/27 06:11:43;;;;;;;7.20;2.25;;;;;;;;;;5093167;28;20030;-78
2022/12/27 06:14:09;;;;;;;8.40;2.78;;;;;;;;;;5091834;28;20024;-77
2022/12/27 06:16:35;;;;;;;5.32;1.75;;;;;;;;;;5093075;28;20463;-76
2022/12/27 06:19:00;;;;;;;5.55;1.83;;;;;;;;;;5091413;28;20028;-78
2022/12/27 06:21:26;;;;;;;4.15;1.67;;;;;;;;;;5091700;28;20039;-77
2022/12/27 06:23:51;;;;;;;6.43;1.95;;;;;;;;;;5091838;28;20127;-76
2022/12/27 06:26:24;;;;;;;7.05;2.10;;;;;;;;;;5093248;28;20072;-76
2022/12/27 06:28:50;;;;;;;10.40;2.00;;;;;;;;;;5074860;28;20053;-76
2022/12/27 06:31:17;;;;;;;5.50;1.70;;;;;;;;;;5074894;28;20020;-76
2022/12/27 06:33:42;;;;;;;7.75;1.73;;;;;;;;;;5091765;28;20032;-77
2022/12/27 06:36:14;;;;;;;6.47;2.17;;;;;;;;;;5092917;28;20035;-78
2022/12/27 06:38:39;;;;;;;5.55;1.85;;;;;;;;;;5091572;28;20032;-77
2022/12/27 06:41:10;;;;;;;4.35;1.60;;;;;;;;;;5092731;28;20024;-77
2022/12/27 06:43:36;;;;;;;6.03;1.90;;;;;;;;;;5091506;28;20028;-77
2022/12/27 06:46:04;;;;;;;5.88;2.08;;;;;;;;;;5091534;28;20051;-77
2022/12/27 06:48:30;;;;;;;7.70;1.60;;;;;;;;;;5091402;28;20077;-77
2022/12/27 06:50:55;;;;;;;6.10;2.10;;;;;;;;;;5074722;28;20032;-76
2022/12/27 06:53:21;;;;;;;6.57;1.98;;;;;;;;;;5091622;28;20089;-77
2022/12/27 06:55:47;;;;;;;9.20;1.83;;;;;;;;;;5103374;28;20474;-81
2022/12/27 06:58:13;;;;;;;9.85;2.30;;;;;;;;;;5111573;28;20102;-80
2022/12/27 07:00:40;;;;;;;9.18;2.45;;;;;;;;;;5112684;28;20030;-78
2022/12/27 07:03:05;;;;;;;14.10;2.00;;;;;;;;;;5113215;28;20476;-78
2022/12/27 07:05:33;;;;;;;4.13;1.63;;;;;;;;;;5114156;28;20063;-77
2022/12/27 07:07:59;;;;;;;7.43;2.17;;;;;;;;;;5112613;28;20050;-79
2022/12/27 07:10:24;;;;;;;7.65;1.65;;;;;;;;;;5113656;28;20024;-78
2022/12/27 07:12:49;;;;;;;5.05;1.42;;;;;;;;;;5114199;28;20497;-78
2022/12/27 07:15:15;;;;;;;3.53;1.67;;;;;;;;;;5113663;28;20036;-78
2022/12/27 07:17:40;;;;;;;4.60;1.70;;;;;;;;;;5113617;28;20038;-79
2022/12/27 07:20:06;;;;;;;6.43;1.70;;;;;;;;;;5112357;28;20032;-79
2022/12/27 07:22:32;;;;;;;5.78;2.20;;;;;;;;;;5113434;28;20024;-78
2022/12/27 07:24:58;;;;;;;11.95;2.05;;;;;;;;;;5112256;28;20084;-80
2022/12/27 07:27:23;;;;;;;14.98;1.98;;;;;;;;;;5112355;28;20051;-80
2022/12/27 07:29:49;;;;;;;8.23;1.67;;;;;;;;;;5112241;28;20389;-79
2022/12/27 07:32:14;;;;;;;7.90;1.67;;;;;;;;;;5114297;28;20020;-79
2022/12/27 07:34:39;;;;;;;5.30;1.50;;;;;;;;;;5116288;28;20470;-81
2022/12/27 07:37:05;;;;;;;4.47;1.73;;;;;;;;;;5117328;28;20024;-79
2022/12/27 07:39:30;;;;;;;3.25;1.92;;;;;;;;;;5117284;28;20066;-79
2022/12/27 07:41:55;;;;;;;4.35;1.63;;;;;;;;;;5117450;28;20027;-80
2022/12/27 07:44:21;;;;;;;5.68;1.65;;;;;;;;;;5116453;28;20039;-79
2022/12/27 07:46:46;;;;;;;3.88;1.55;;;;;;;;;;5117902;28;20032;-80
2022/12/27 07:49:12;;;;;;;3.67;1.50;;;;;;;;;;5115764;28;20502;-79
2022/12/27 07:51:37;;;;;;;5.18;1.50;;;;;;;;;;5117354;28;20040;-79
2022/12/27 07:54:02;;;;;;;3.20;1.25;;;;;;;;;;5116000;28;20034;-81
2022/12/27 07:56:28;;;;;;;5.55;1.70;;;;;;;;;;5117137;28;20099;-80
2022/12/27 07:58:56;;;;;;;3.83;1.83;;;;;;;;;;5098515;28;20039;-80
2022/12/27 08:01:23;;;;;;;2.17;1.45;;;;;;;;;;5098292;28;20394;-81
2022/12/27 08:03:48;;;;;;;4.20;1.60;;;;;;;;;;5115564;28;20057;-81
2022/12/27 08:06:29;;;;;;;3.90;1.38;;;;;;;;;;5098616;28;20478;-81
2022/12/27 08:08:56;;;;;;;3.17;1.40;;;;;;;;;;5115738;28;20023;-82
2022/12/27 08:11:25;;;;;;;3.53;1.63;;;;;;;;;;5116619;28;20024;-81
2022/12/27 08:13:51;;;;;;;4.03;1.25;;;;;;;;;;5082897;28;20114;-80
2022/12/27 08:16:18;;;;;;;2.30;1.20;;;;;;;;;;5098715;28;20062;-79
2022/12/27 08:18:44;;;;;;;3.53;1.40;;;;;;;;;;5117520;28;20432;-82
2022/12/27 08:21:10;;;;;;;4.13;1.50;;;;;;;;;;5115657;28;20026;-81
2022/12/27 08:23:35;;;;;;;3.72;1.58;;;;;;;;;;5099071;28;20438;-82
2022/12/27 08:26:00;;;;;;;3.67;1.23;;;;;;;;;;5098663;28;20076;-83
2022/12/27 08:28:30;;;;;;;4.18;1.33;;;;;;;;;;5115727;28;20024;-81
2022/12/27 08:30:56;;;;;;;3.50;1.00;;;;;;;;;;5098644;28;20046;-82
2022/12/27 08:33:21;;;;;;;2.65;1.38;;;;;;;;;;5098617;28;20458;-81
2022/12/27 08:35:47;;;;;;;5.63;1.45;;;;;;;;;;5116459;28;20043;-82
2022/12/27 08:38:12;;;;;;;3.13;1.48;;;;;;;;;;5116223;28;20060;-83
2022/12/27 08:40:40;;;;;;;5.60;1.25;;;;;;;;;;5115074;28;20036;-78
2022/12/27 08:43:05;;;;;;;2.10;1.15;;;;;;;;;;5097616;28;20024;-79
2022/12/27 08:45:31;;;;;;;4.20;1.45;;;;;;;;;;5115062;28;20042;-81
2022/12/27 08:48:00;;;;;;;4.32;1.40;;;;;;;;;;5116387;28;20027;-80
2022/12/27 08:50:26;;;;;;;3.30;1.38;;;;;;;;;;5114888;28;20532;-80
2022/12/27 08:52:59;;;;;;;2.53;1.20;;;;;;;;;;5115127;28;20073;-80
2022/12/27 08:55:26;;;;;;;3.00;1.23;;;;;;;;;;5115944;28;20040;-79
2022/12/27 08:57:58;;;;;;;3.83;1.60;;;;;;;;;;5114163;28;20151;-79
2022/12/27 09:00:24;;;;;;;5.70;1.60;;;;;;;;;;5115349;28;20044;-78
2022/12/27 09:02:50;;;;;;;1.85;1.05;;;;;;;;;;5114257;28;20115;-77
2022/12/27 09:05:15;;;;;;;2.88;1.60;;;;;;;;;;5114086;28;20094;-78
2022/12/27 09:07:41;;;;;;;2.35;1.45;;;;;;;;;;5113439;28;20089;-78
2022/12/27 09:10:07;;;;;;;4.30;1.60;;;;;;;;;;5113835;28;20108;-77
2022/12/27 09:12:33;;;;;;;3.05;1.20;;;;;;;;;;5113872;28;20063;-78
2022/12/27 09:14:58;;;;;;;4.47;1.50;;;;;;;;;;5114131;28;20029;-78
2022/12/27 09:17:24;;;;;;;3.65;1.30;;;;;;;;;;5114870;28;20035;-78
2022/12/27 09:19:49;;;;;;;4.30;1.40;;;;;;;;;;5113812;28;20076;-83
2022/12/27 09:22:15;;;;;;;6.13;1.58;;;;;;;;;;5096969;28;20035;-79
2022/12/27 09:24:40;;;;;;;3.35;1.23;;;;;;;;;;5097537;28;20035;-79
2022/12/27 09:27:06;;;;;;;3.03;1.23;;;;;;;;;;5115172;28;20063;-79
2022/12/27 09:29:32;;;;;;;2.30;1.42;;;;;;;;;;5115663;28;20482;-79
2022/12/27 09:31:57;;;;;;;4.18;1.48;;;;;;;;;;5113964;28;20035;-80
2022/12/27 09:34:22;;;;;;;3.10;1.50;;;;;;;;;;5115310;28;20035;-79
2022/12/27 09:36:48;;;;;;;2.10;1.27;;;;;;;;;;5096710;28;20419;-79
2022/12/27 09:39:15;;;;;;;3.10;1.10;;;;;;;;;;5097026;28;20035;-79
2022/12/27 09:42:10;;;;;;;5.13;1.67;;;;;;;;;;5114310;28;20558;-78
2022/12/27 09:44:54;;;;;;;3.85;1.10;;;;;;;;;;5092912;28;20158;-76
2022/12/27 09:47:27;;;;;;;;;;;;;;;;;;5079997;28;20026;-80
2022/12/27 09:50:11;;;;;;;4.90;1.48;;;;;;;;;;5113558;28;19915;-79
2022/12/27 09:52:42;;;;;;;3.03;1.23;;;;;;;;;;5115238;28;20042;-81
2022/12/27 09:55:16;;;;;;;2.25;1.30;;;;;;;;;;5112676;28;20027;-82
2022/12/27 09:57:42;;;;;;;;;;;;;;;;;;5113586;28;20466;-83
2022/12/27 10:00:18;;;;;;;3.08;1.33;;;;;;;;;;5112986;28;19916;-79
2022/12/27 10:02:44;;;;;;;1.83;1.17;;;;;;;;;;5096616;28;20032;-82
2022/12/27 10:05:20;;;;;;;4.20;1.30;;;;;;;;;;5114639;28;20026;-82
2022/12/27 10:07:45;;;;;;;2.85;1.17;;;;;;;;;;5113207;28;20026;-80
2022/12/27 10:10:19;;;;;;;2.80;1.65;;;;;;;;;;5113151;28;20027;-83
2022/12/27 10:13:01;;;;;;;;;;;;;;;;;;5096204;28;20397;-82
2022/12/27 10:15:48;;;;;;;2.40;1.20;;;;;;;;;;5112776;28;19907;-78
2022/12/27 10:18:31;;;;;;;2.90;1.45;;;;;;;;;;5113470;28;20028;-80
2022/12/27 10:21:21;;;;;;;2.88;1.40;;;;;;;;;;5114027;28;20477;-81
2022/12/27 10:24:15;;;;;;;2.78;1.33;;;;;;;;;;5112353;28;20035;-80
2022/12/27 10:26:40;;;;;;;2.60;1.30;;;;;;;;;;5092024;28;20118;-80
2022/12/27 10:29:18;;;;;;;3.10;1.40;;;;;;;;;;5112465;28;20127;-80
2022/12/27 10:31:43;;;;;;;6.50;1.27;;;;;;;;;;5112616;28;20031;-80
2022/12/27 10:34:13;;;;;;;1.67;1.13;;;;;;;;;;5112591;28;20447;-79
2022/12/27 10:36:39;;;;;;;2.25;1.35;;;;;;;;;;5112869;28;20102;-80
2022/12/27 10:39:16;;;;;;;1.73;1.20;;;;;;;;;;5112428;28;20111;-83
2022/12/27 10:42:19;;;;;;;3.05;1.52;;;;;;;;;;5113727;28;20027;-80
2022/12/27 10:44:44;;;;;;;3.63;1.33;;;;;;;;;;5113787;28;20505;-80
2022/12/27 10:47:10;;;;;;;3.83;1.58;;;;;;;;;;5096157;28;20150;-81
2022/12/27 10:49:36;;;;;;;1.52;1.27;;;;;;;;;;5113407;28;20127;-80
2022/12/27 10:52:17;;;;;;;4.32;1.40;;;;;;;;;;5112594;28;20032;-79
2022/12/27 10:54:53;;;;;;;3.55;1.40;;;;;;;;;;5095078;28;20401;-79
2022/12/27 10:57:26;;;;;;;3.05;1.60;;;;;;;;;;5112902;28;20027;-80
2022/12/27 11:00:12;;;;;;;3.38;1.50;;;;;;;;;;5112701;28;20709;-80
2022/12/27 11:02:54;;;;;;;2.58;1.35;;;;;;;;;;5113796;28;20092;-79
2022/12/27 11:05:25;;;;;;;3.17;1.35;;;;;;;;;;5113134;28;20050;-79
2022/12/27 11:07:50;;;;;;;4.80;1.52;;;;;;;;;;5116092;28;20011;-78
2022/12/27 11:10:19;;;;;;;2.60;1.45;;;;;;;;;;5116720;28;20500;-78
2022/12/27 11:12:56;;;;;;;3.78;1.60;;;;;;;;;;5099186;28;20027;-79
2022/12/27 11:15:22;;;;;;;3.63;1.35;;;;;;;;;;5116546;28;20027;-78
2022/12/27 11:17:53;;;;;;;6.28;1.88;;;;;;;;;;5082380;28;20547;-78
2022/12/27 11:20:22;;;;;;;2.20;1.35;;;;;;;;;;5116496;28;20023;-78
2022/12/27 11:23:08;;;;;;;5.93;1.50;;;;;;;;;;5116444;28;20377;-78
2022/12/27 11:25:34;;;;;;;6.70;1.75;;;;;;;;;;5116171;28;20032;-78
2022/12/27 11:28:03;;;;;;;4.72;1.70;;;;;;;;;;5099080;28;20019;-79
2022/12/27 11:30:29;;;;;;;3.80;1.60;;;;;;;;;;5117584;28;20105;-78
2022/12/27 11:32:57;;;;;;;4.63;1.90;;;;;;;;;;5116793;28;20035;-79
2022/12/27 11:35:22;;;;;;;6.53;1.70;;;;;;;;;;5098240;28;20045;-80
2022/12/27 11:37:48;;;;;;;2.53;1.60;;;;;;;;;;5115351;28;20106;-79
2022/12/27 11:40:23;;;;;;;2.50;1.50;;;;;;;;;;5115247;28;20102;-79
2022/12/27 11:43:09;;;;;;;2.55;1.40;;;;;;;;;;5116454;28;20035;-78
2022/12/27 11:45:40;;;;;;;2.58;1.50;;;;;;;;;;5097819;28;20031;-78
2022/12/27 11:48:15;;;;;;;2.25;1.73;;;;;;;;;;5115062;28;20027;-79
2022/12/27 11:51:15;;;;;;;2.70;1.20;;;;;;;;;;5114884;28;20071;-80
2022/12/27 11:54:11;;;;;;;6.88;1.52;;;;;;;;;;5116293;28;20027;-78
2022/12/27 11:56:43;;;;;;;3.05;1.30;;;;;;;;;;5116241;28;20019;-79
2022/12/27 11:59:38;;;;;;;3.20;1.50;;;;;;;;;;5114967;28;20023;-80
2022/12/27 12:02:28;;;;;;;2.60;1.30;;;;;;;;;;5077815;28;20048;-79
2022/12/27 12:05:27;;;;;;;2.47;1.48;;;;;;;;;;5115992;28;20062;-78
2022/12/27 12:08:30;;;;;;;4.32;1.70;;;;;;;;;;5114637;28;20027;-79
2022/12/27 12:11:14;;;;;;;5.65;1.25;;;;;;;;;;5114619;28;20024;-79
2022/12/27 12:13:48;;;;;;;8.00;2.15;;;;;;;;;;5115919;28;20099;-79
2022/12/27 12:16:39;;;;;;;2.22;1.30;;;;;;;;;;5115822;28;20035;-79
2022/12/27 12:19:13;;;;;;;3.92;1.80;;;;;;;;;;5097428;28;20027;-79
2022/12/27 12:22:01;;;;;;;5.85;1.45;;;;;;;;;;5115709;28;20028;-79
2022/12/27 12:25:02;;;;;;;4.38;1.60;;;;;;;;;;5097308;28;20027;-79
2022/12/27 12:27:49;;;;;;;1.83;1.40;;;;;;;;;;5103488;28;20085;-81
2022/12/27 12:30:52;;;;;;;2.58;1.52;;;;;;;;;;5097271;28;20019;-81
2022/12/27 12:33:23;;;;;;;3.78;1.50;;;;;;;;;;5116482;28;20031;-81
2022/12/27 12:36:06;;;;;;;4.55;1.60;;;;;;;;;;5115840;28;20474;-80
2022/12/27 12:38:38;;;;;;;3.58;1.50;;;;;;;;;;5115408;28;20115;-79
2022/12/27 12:41:29;;;;;;;2.42;1.40;;;;;;;;;;5115240;28;20023;-81
2022/12/27 12:44:17;;;;;;;3.00;1.38;;;;;;;;;;5114053;28;20080;-83
2022/12/27 12:46:54;;;;;;;3.72;1.60;;;;;;;;;;5086065;28;20401;-81
2022/12/27 12:50:04;;;;;;;5.40;1.67;;;;;;;;;;5114103;28;20550;-79
2022/12/27 12:52:42;;;;;;;3.67;1.77;;;;;;;;;;5097022;28;20019;-79
2022/12/27 12:55:35;;;;;;;3.33;1.40;;;;;;;;;;5115246;28;20080;-81
2022/12/27 12:58:46;;;;;;;4.22;1.80;;;;;;;;;;5095739;28;20045;-83
2022/12/27 13:01:26;;;;;;;3.95;1.60;;;;;;;;;;5080069;28;20623;-81
2022/12/27 13:04:06;;;;;;;3.95;1.70;;;;;;;;;;5096917;28;20489;-81
2022/12/27 13:06:46;;;;;;;3.28;1.73;;;;;;;;;;5114368;28;20031;-81
2022/12/27 13:09:17;;;;;;;3.90;1.58;;;;;;;;;;5114906;28;20401;-80
2022/12/27 13:11:43;;;;;;;5.40;1.67;;;;;;;;;;5115279;28;20046;-83
2022/12/27 13:14:23;;;;;;;4.63;1.70;;;;;;;;;;5114774;28;20474;-80
2022/12/27 13:16:54;;;;;;;12.07;1.90;;;;;;;;;;5113185;28;20031;-81
2022/12/27 13:19:33;;;;;;;5.18;1.70;;;;;;;;;;5113353;28;20390;-81
2022/12/27 13:22:11;;;;;;;3.20;1.60;;;;;;;;;;5114710;28;20027;-81
2022/12/27 13:24:49;;;;;;;2.95;1.40;;;;;;;;;;5114952;28;20493;-81
2022/12/27 13:27:26;;;;;;;3.25;1.60;;;;;;;;;;5115292;28;20027;-81
2022/12/27 13:30:02;;;;;;;5.18;1.90;;;;;;;;;;5096279;28;20023;-81
2022/12/27 13:32:34;;;;;;;6.07;1.98;;;;;;;;;;5112966;28;20086;-81
2022/12/27 13:35:20;;;;;;;4.80;1.80;;;;;;;;;;5114479;28;20098;-80
2022/12/27 13:38:04;;;;;;;7.95;1.88;;;;;;;;;;5114304;28;20470;-81
2022/12/27 13:40:39;;;;;;;5.00;2.03;;;;;;;;;;5114102;28;20050;-79
2022/12/27 13:43:24;;;;;;;4.72;1.60;;;;;;;;;;5113386;28;20030;-81
2022/12/27 13:46:08;;;;;;;4.13;1.55;;;;;;;;;;5114357;28;20458;-81
2022/12/27 13:48:55;;;;;;;4.85;1.60;;;;;;;;;;5113984;28;20032;-81
2022/12/27 13:51:39;;;;;;;5.68;2.20;;;;;;;;;;5113967;28;20138;-81
2022/12/27 13:54:23;;;;;;;4.43;1.90;;;;;;;;;;5095909;28;20058;-81
2022/12/27 13:57:24;;;;;;;2.50;1.48;;;;;;;;;;5112651;28;20034;-80
2022/12/27 14:00:10;;;;;;;4.05;1.83;;;;;;;;;;5074130;28;20032;-80
2022/12/27 14:02:35;;;;;;;2.95;1.38;;;;;;;;;;5112233;28;20027;-81
2022/12/27 14:05:01;;;;;;;3.70;1.70;;;;;;;;;;5113923;28;20042;-81
2022/12/27 14:07:49;;;;;;;3.70;1.52;;;;;;;;;;5102929;28;20107;-80
2022/12/27 14:10:35;;;;;;;4.28;2.42;;;;;;;;;;5101419;28;20026;-81
2022/12/27 14:13:06;;;;;;;3.63;1.60;;;;;;;;;;5103364;28;20068;-81
2022/12/27 14:15:56;;;;;;;5.45;1.70;;;;;;;;;;5102182;28;20502;-80
2022/12/27 14:18:44;;;;;;;6.10;1.92;;;;;;;;;;5103377;28;20057;-80
2022/12/27 14:21:09;;;;;;;3.58;1.65;;;;;;;;;;5102696;28;20386;-80
2022/12/27 14:24:12;;;;;;;5.57;2.03;;;;;;;;;;5101014;28;20118;-80
2022/12/27 14:27:13;;;;;;;3.85;1.80;;;;;;;;;;5102401;28;20470;-81
2022/12/27 14:29:59;;;;;;;5.30;1.77;;;;;;;;;;5026271;28;20111;-79
2022/12/27 14:32:50;;;;;;;9.32;1.50;;;;;;;;;;5030972;28;20091;-79
2022/12/27 14:35:53;;;;;;;3.15;1.60;;;;;;;;;;4997883;28;20025;-80
2022/12/27 14:38:43;;;;;;;4.95;1.77;;;;;;;;;;5029249;28;20029;-80
2022/12/27 14:41:40;;;;;;;3.92;1.63;;;;;;;;;;5013763;28;20049;-80
2022/12/27 14:44:29;;;;;;;4.30;1.70;;;;;;;;;;5030630;28;20037;-83
2022/12/27 14:47:32;;;;;;;3.50;1.60;;;;;;;;;;5012125;28;20399;-83
2022/12/27 14:50:16;;;;;;;5.43;2.20;;;;;;;;;;5028813;28;20041;-83
2022/12/27 14:52:42;;;;;;;;;;;;;;;;;;5031314;28;20025;-81
2022/12/27 14:55:37;;;;;;;3.43;1.60;;;;;;;;;;5030676;28;19916;-83
2022/12/27 14:58:29;;;;;;;3.55;1.48;;;;;;;;;;5030795;28;20083;-82
2022/12/27 15:01:16;;;;;;;3.72;1.75;;;;;;;;;;5005356;28;20030;-82
2022/12/27 15:04:00;;;;;;;5.50;2.03;;;;;;;;;;5039067;28;20039;-83
2022/12/27 15:06:59;;;;;;;4.07;1.65;;;;;;;;;;5100741;28;20109;-83
2022/12/27 15:09:45;;;;;;;5.38;1.80;;;;;;;;;;5092191;28;20154;-81
2022/12/27 15:12:10;;;;;;;6.32;1.80;;;;;;;;;;5102792;28;20016;-82
2022/12/27 15:14:47;;;;;;;5.45;1.77;;;;;;;;;;5099740;28;20081;-82
2022/12/27 15:17:12;;;;;;;7.97;2.58;;;;;;;;;;5092081;28;20093;-82
2022/12/27 15:19:58;;;;;;;10.25;1.70;;;;;;;;;;5094623;28;20460;-80
2022/12/27 15:22:30;;;;;;;3.10;1.38;;;;;;;;;;5099146;28;20431;-81
2022/12/27 15:25:07;;;;;;;3.13;1.63;;;;;;;;;;5101370;28;20525;-81
2022/12/27 15:27:38;;;;;;;7.07;1.80;;;;;;;;;;5084822;28;20027;-82
2022/12/27 15:30:16;;;;;;;3.08;1.60;;;;;;;;;;5101602;28;20061;-81
2022/12/27 15:33:02;;;;;;;3.28;1.58;;;;;;;;;;5103378;28;20082;-81
2022/12/27 15:35:37;;;;;;;5.55;2.10;;;;;;;;;;5101951;28;20486;-80
2022/12/27 15:38:06;;;;;;;3.55;1.60;;;;;;;;;;5102466;28;20431;-79
2022/12/27 15:40:31;;;;;;;1.73;1.40;;;;;;;;;;5100912;28;20483;-79
2022/12/27 15:43:15;;;;;;;4.05;1.70;;;;;;;;;;5102048;28;20072;-79
2022/12/27 15:45:41;;;;;;;5.30;1.70;;;;;;;;;;5103320;28;20090;-81
2022/12/27 15:48:34;;;;;;;2.60;1.30;;;;;;;;;;5101880;28;20024;-81
2022/12/27 15:51:09;;;;;;;2.25;1.45;;;;;;;;;;5085254;28;20038;-81
2022/12/27 15:53:47;;;;;;;4.68;1.80;;;;;;;;;;5102206;28;20019;-81
2022/12/27 15:56:16;;;;;;;4.35;1.50;;;;;;;;;;5106145;28;20479;-81
2022/12/27 15:58:41;;;;;;;4.45;1.42;;;;;;;;;;5107105;28;20031;-81
2022/12/27 16:01:16;;;;;;;2.45;1.50;;;;;;;;;;5086785;28;20035;-80
2022/12/27 16:03:46;;;;;;;1.85;1.38;;;;;;;;;;5105064;28;20047;-80
2022/12/27 16:06:33;;;;;;;3.58;1.60;;;;;;;;;;5105046;28;20031;-80
2022/12/27 16:09:23;;;;;;;2.35;1.05;;;;;;;;;;5106747;28;20091;-80
2022/12/27 16:11:58;;;;;;;2.72;1.20;;;;;;;;;;5103921;28;20039;-80
2022/12/27 16:14:29;;;;;;;3.53;1.42;;;;;;;;;;5107422;28;20359;-80
2022/12/27 16:17:02;;;;;;;2.05;1.33;;;;;;;;;;5114878;28;20023;-79
2022/12/27 16:19:45;;;;;;;1.80;1.23;;;;;;;;;;5115166;28;20023;-80
2022/12/27 16:22:40;;;;;;;1.65;1.20;;;;;;;;;;5116623;28;20031;-80
2022/12/27 16:25:24;;;;;;;3.83;1.52;;;;;;;;;;5115695;28;20089;-80
2022/12/27 16:28:15;;;;;;;2.00;1.20;;;;;;;;;;5114998;28;20174;-79
2022/12/27 16:30:53;;;;;;;2.13;1.25;;;;;;;;;;5109443;28;20047;-80
2022/12/27 16:33:24;;;;;;;2.90;1.30;;;;;;;;;;5098453;28;20122;-80
2022/12/27 16:36:17;;;;;;;3.08;1.40;;;;;;;;;;5116117;27;20019;-80
2022/12/27 16:38:51;;;;;;;4.40;1.30;;;;;;;;;;5113031;27;20050;-79
2022/12/27 16:41:21;;;;;;;2.53;1.50;;;;;;;;;;5114423;27;20032;-79
2022/12/27 16:43:58;;;;;;;1.83;1.20;;;;;;;;;;5097311;28;20028;-79
2022/12/27 16:46:42;;;;;;;3.85;1.50;;;;;;;;;;5116089;27;20026;-80
2022/12/27 16:49:14;;;;;;;;;;;;;;;;;;5110615;28;20036;-80
2022/12/27 16:52:16;;;;;;;3.00;1.48;;;;;;;;;;5094905;28;19943;-80
2022/12/27 16:55:05;;;;;;;2.47;1.40;;;;;;;;;;5103017;28;20062;-78
2022/12/27 16:58:02;;;;;;;4.70;1.58;;;;;;;;;;5105598;28;20094;-79
2022/12/27 17:00:44;;;;;;;3.80;1.35;;;;;;;;;;5075181;28;20043;-78
2022/12/27 17:03:30;;;;;;;2.83;1.20;;;;;;;;;;5106880;27;20024;-78
2022/12/27 17:05:56;;;;;;;4.22;1.40;;;;;;;;;;5102856;28;20048;-79